sensor_id;sensor_type;location;lat;lon;timestamp;temperature;humidity
6462;DHT22;3264;42.862;25.098;2022-08-11T00:00:34;17.40;99.90
6462;DHT22;3264;42.862;25.098;2022-08-11T00:06:24;17.40;99.90
6462;DHT22;3264;42.862;25.098;2022-08-11T00:08:54;17.30;99.90
6462;DHT22;3264;42.862;25.098;2022-08-11T00:14:46;17.40;99.90
6462;DHT22;3264;42.862;25.098;2022-08-11T00:17:26;17.50;99.90
6462;DHT22;3264;42.862;25.098;2022-08-11T00:20:03;17.50;99.90
6462;DHT22;3264;42.862;25.098;2022-08-11T00:25:41;17.70;99.90
6462;DHT22;3264;42.862;25.098;2022-08-11T00:28:25;17.60;99.90
6462;DHT22;3264;42.862;25.098;2022-08-11T00:34:19;17.50;99.90
6462;DHT22;3264;42.862;25.098;2022-08-11T00:49:17;17.50;99.90
6462;DHT22;3264;42.862;25.098;2022-08-11T00:52:06;17.50;99.90
6462;DHT22;3264;42.862;25.098;2022-08-11T00:55:41;17.30;99.90
6462;DHT22;3264;42.862;25.098;2022-08-11T01:01:20;17.10;99.90
6462;DHT22;3264;42.862;25.098;2022-08-11T01:04:15;17.00;99.90
6462;DHT22;3264;42.862;25.098;2022-08-11T01:10:06;16.90;99.90
6462;DHT22;3264;42.862;25.098;2022-08-11T01:12:48;17.00;99.90
6462;DHT22;3264;42.862;25.098;2022-08-11T01:15:57;16.80;99.90
6462;DHT22;3264;42.862;25.098;2022-08-11T01:18:51;16.80;99.90
6462;DHT22;3264;42.862;25.098;2022-08-11T01:28:20;16.80;99.90
6462;DHT22;3264;42.862;25.098;2022-08-11T01:31:29;16.80;99.90
6462;DHT22;3264;42.862;25.098;2022-08-11T01:47:24;16.50;99.90
6462;DHT22;3264;42.862;25.098;2022-08-11T01:50:16;16.50;99.90
6462;DHT22;3264;42.862;25.098;2022-08-11T01:53:00;16.50;99.90
6462;DHT22;3264;42.862;25.098;2022-08-11T01:55:36;16.50;99.90
6462;DHT22;3264;42.862;25.098;2022-08-11T01:58:16;16.50;99.90
6462;DHT22;3264;42.862;25.098;2022-08-11T02:01:09;16.50;99.90
6462;DHT22;3264;42.862;25.098;2022-08-11T02:03:48;16.50;99.90
6462;DHT22;3264;42.862;25.098;2022-08-11T02:06:21;16.50;99.90
6462;DHT22;3264;42.862;25.098;2022-08-11T02:09:15;16.40;99.90
6462;DHT22;3264;42.862;25.098;2022-08-11T02:11:50;16.30;99.90
6462;DHT22;3264;42.862;25.098;2022-08-11T02:18:00;16.40;99.90
6462;DHT22;3264;42.862;25.098;2022-08-11T02:20:41;16.50;99.90
6462;DHT22;3264;42.862;25.098;2022-08-11T02:23:32;16.40;99.90
6462;DHT22;3264;42.862;25.098;2022-08-11T02:26:15;16.40;99.90
6462;DHT22;3264;42.862;25.098;2022-08-11T02:29:02;16.40;99.90
6462;DHT22;3264;42.862;25.098;2022-08-11T02:31:57;16.50;99.90
6462;DHT22;3264;42.862;25.098;2022-08-11T02:35:15;16.50;99.90
6462;DHT22;3264;42.862;25.098;2022-08-11T02:38:26;16.40;99.90
6462;DHT22;3264;42.862;25.098;2022-08-11T02:41:01;16.50;99.90
6462;DHT22;3264;42.862;25.098;2022-08-11T02:44:05;16.50;99.90
6462;DHT22;3264;42.862;25.098;2022-08-11T02:46:55;16.60;99.90
6462;DHT22;3264;42.862;25.098;2022-08-11T02:49:40;16.60;99.90
6462;DHT22;3264;42.862;25.098;2022-08-11T02:52:42;16.70;99.90
6462;DHT22;3264;42.862;25.098;2022-08-11T02:55:20;16.70;99.90
6462;DHT22;3264;42.862;25.098;2022-08-11T02:57:56;16.70;99.90
6462;DHT22;3264;42.862;25.098;2022-08-11T03:04:09;16.70;99.90
6462;DHT22;3264;42.862;25.098;2022-08-11T03:06:49;16.80;99.90
6462;DHT22;3264;42.862;25.098;2022-08-11T03:09:25;16.80;99.90
6462;DHT22;3264;42.862;25.098;2022-08-11T03:12:03;16.80;99.90
6462;DHT22;3264;42.862;25.098;2022-08-11T03:14:57;16.70;99.90
6462;DHT22;3264;42.862;25.098;2022-08-11T03:17:52;16.80;99.90
6462;DHT22;3264;42.862;25.098;2022-08-11T03:20:41;17.00;99.90
6462;DHT22;3264;42.862;25.098;2022-08-11T03:23:24;17.00;99.90
6462;DHT22;3264;42.862;25.098;2022-08-11T03:26:02;16.90;99.90
6462;DHT22;3264;42.862;25.098;2022-08-11T03:31:25;16.70;99.90
6462;DHT22;3264;42.862;25.098;2022-08-11T03:37:25;16.80;99.90
6462;DHT22;3264;42.862;25.098;2022-08-11T03:40:15;17.00;99.90
6462;DHT22;3264;42.862;25.098;2022-08-11T03:43:17;17.00;99.90
6462;DHT22;3264;42.862;25.098;2022-08-11T03:45:56;17.00;99.90
6462;DHT22;3264;42.862;25.098;2022-08-11T03:48:40;17.00;99.90
6462;DHT22;3264;42.862;25.098;2022-08-11T03:51:17;17.10;99.90
6462;DHT22;3264;42.862;25.098;2022-08-11T03:54:13;17.10;99.90
6462;DHT22;3264;42.862;25.098;2022-08-11T04:00:09;17.10;99.90
6462;DHT22;3264;42.862;25.098;2022-08-11T04:06:22;17.20;99.90
6462;DHT22;3264;42.862;25.098;2022-08-11T04:12:18;17.30;99.90
6462;DHT22;3264;42.862;25.098;2022-08-11T04:18:53;17.50;99.90
6462;DHT22;3264;42.862;25.098;2022-08-11T04:21:56;17.50;99.90
6462;DHT22;3264;42.862;25.098;2022-08-11T04:39:15;17.90;99.90
6462;DHT22;3264;42.862;25.098;2022-08-11T04:42:11;18.00;99.90
6462;DHT22;3264;42.862;25.098;2022-08-11T04:54:53;18.10;99.90
6462;DHT22;3264;42.862;25.098;2022-08-11T05:09:24;18.50;99.90
6462;DHT22;3264;42.862;25.098;2022-08-11T05:12:24;18.70;99.90
6462;DHT22;3264;42.862;25.098;2022-08-11T05:14:57;18.70;99.90
6462;DHT22;3264;42.862;25.098;2022-08-11T05:17:51;18.70;99.90
6462;DHT22;3264;42.862;25.098;2022-08-11T05:20:45;18.70;99.90
6462;DHT22;3264;42.862;25.098;2022-08-11T05:23:33;18.70;99.90
6462;DHT22;3264;42.862;25.098;2022-08-11T05:26:21;18.70;99.90
6462;DHT22;3264;42.862;25.098;2022-08-11T05:29:26;19.00;99.90
6462;DHT22;3264;42.862;25.098;2022-08-11T05:35:40;19.10;99.90
6462;DHT22;3264;42.862;25.098;2022-08-11T05:38:15;19.20;99.90
6462;DHT22;3264;42.862;25.098;2022-08-11T05:41:01;19.30;99.90
6462;DHT22;3264;42.862;25.098;2022-08-11T05:43:49;19.50;99.90
6462;DHT22;3264;42.862;25.098;2022-08-11T05:46:38;19.80;99.90
6462;DHT22;3264;42.862;25.098;2022-08-11T05:49:41;19.80;99.90
6462;DHT22;3264;42.862;25.098;2022-08-11T05:52:28;19.50;99.90
6462;DHT22;3264;42.862;25.098;2022-08-11T05:55:15;19.70;99.90
6462;DHT22;3264;42.862;25.098;2022-08-11T05:58:05;19.80;99.90
6462;DHT22;3264;42.862;25.098;2022-08-11T06:03:59;20.40;99.90
6462;DHT22;3264;42.862;25.098;2022-08-11T06:06:52;20.70;99.00
6462;DHT22;3264;42.862;25.098;2022-08-11T06:09:30;20.80;97.90
6462;DHT22;3264;42.862;25.098;2022-08-11T06:15:10;21.00;96.10
6462;DHT22;3264;42.862;25.098;2022-08-11T06:21:08;21.50;95.50
6462;DHT22;3264;42.862;25.098;2022-08-11T06:27:08;21.30;93.20
6462;DHT22;3264;42.862;25.098;2022-08-11T06:29:49;21.40;94.90
6462;DHT22;3264;42.862;25.098;2022-08-11T06:32:53;21.60;94.70
6462;DHT22;3264;42.862;25.098;2022-08-11T06:35:46;21.50;93.20
6462;DHT22;3264;42.862;25.098;2022-08-11T06:41:51;21.90;93.70
6462;DHT22;3264;42.862;25.098;2022-08-11T06:44:26;22.00;93.70
6462;DHT22;3264;42.862;25.098;2022-08-11T06:47:18;22.50;93.50
6462;DHT22;3264;42.862;25.098;2022-08-11T06:49:50;23.10;91.70
6462;DHT22;3264;42.862;25.098;2022-08-11T06:52:45;22.60;91.20
6462;DHT22;3264;42.862;25.098;2022-08-11T06:55:30;22.70;91.10
6462;DHT22;3264;42.862;25.098;2022-08-11T06:58:53;22.20;90.50
6462;DHT22;3264;42.862;25.098;2022-08-11T07:01:56;22.40;90.70
6462;DHT22;3264;42.862;25.098;2022-08-11T07:04:30;22.80;92.20
6462;DHT22;3264;42.862;25.098;2022-08-11T07:07:41;23.10;92.20
6462;DHT22;3264;42.862;25.098;2022-08-11T07:10:48;23.70;91.00
6462;DHT22;3264;42.862;25.098;2022-08-11T07:13:39;24.20;90.50
6462;DHT22;3264;42.862;25.098;2022-08-11T07:16:47;24.60;88.10
6462;DHT22;3264;42.862;25.098;2022-08-11T07:19:20;24.60;84.10
6462;DHT22;3264;42.862;25.098;2022-08-11T07:22:09;24.00;85.00
6462;DHT22;3264;42.862;25.098;2022-08-11T07:24:58;24.40;86.90
6462;DHT22;3264;42.862;25.098;2022-08-11T07:34:33;24.90;85.60
6462;DHT22;3264;42.862;25.098;2022-08-11T07:37:09;25.00;84.10
6462;DHT22;3264;42.862;25.098;2022-08-11T07:49:12;24.60;77.60
6462;DHT22;3264;42.862;25.098;2022-08-11T07:51:57;25.60;78.60
6462;DHT22;3264;42.862;25.098;2022-08-11T07:54:45;26.40;75.20
6462;DHT22;3264;42.862;25.098;2022-08-11T07:57:13;26.00;73.80
6462;DHT22;3264;42.862;25.098;2022-08-11T07:59:59;25.70;75.70
6462;DHT22;3264;42.862;25.098;2022-08-11T08:02:45;25.40;75.60
6462;DHT22;3264;42.862;25.098;2022-08-11T08:05:33;25.60;77.60
6462;DHT22;3264;42.862;25.098;2022-08-11T08:08:18;25.70;77.80
6462;DHT22;3264;42.862;25.098;2022-08-11T08:14:25;25.50;75.50
6462;DHT22;3264;42.862;25.098;2022-08-11T08:17:11;25.60;76.50
6462;DHT22;3264;42.862;25.098;2022-08-11T08:19:57;25.30;75.90
6462;DHT22;3264;42.862;25.098;2022-08-11T08:22:33;25.20;77.10
6462;DHT22;3264;42.862;25.098;2022-08-11T08:25:03;24.70;77.00
6462;DHT22;3264;42.862;25.098;2022-08-11T08:27:34;24.90;79.20
6462;DHT22;3264;42.862;25.098;2022-08-11T08:30:05;24.40;77.60
6462;DHT22;3264;42.862;25.098;2022-08-11T08:32:50;24.70;78.40
6462;DHT22;3264;42.862;25.098;2022-08-11T08:35:21;25.00;78.20
6462;DHT22;3264;42.862;25.098;2022-08-11T08:37:52;25.60;76.30
6462;DHT22;3264;42.862;25.098;2022-08-11T08:40:21;26.60;73.40
6462;DHT22;3264;42.862;25.098;2022-08-11T08:42:53;26.60;68.80
6462;DHT22;3264;42.862;25.098;2022-08-11T08:45:23;25.90;73.70
6462;DHT22;3264;42.862;25.098;2022-08-11T08:48:00;26.90;73.80
6462;DHT22;3264;42.862;25.098;2022-08-11T08:53:45;26.50;69.70
6462;DHT22;3264;42.862;25.098;2022-08-11T08:56:23;26.50;70.80
6462;DHT22;3264;42.862;25.098;2022-08-11T08:59:07;26.80;70.30
6462;DHT22;3264;42.862;25.098;2022-08-11T09:01:56;27.00;70.10
6462;DHT22;3264;42.862;25.098;2022-08-11T09:04:28;26.20;71.30
6462;DHT22;3264;42.862;25.098;2022-08-11T09:06:59;26.40;73.00
6462;DHT22;3264;42.862;25.098;2022-08-11T09:09:32;26.90;69.20
6462;DHT22;3264;42.862;25.098;2022-08-11T09:19:19;27.00;68.60
6462;DHT22;3264;42.862;25.098;2022-08-11T09:25:56;26.60;69.10
6462;DHT22;3264;42.862;25.098;2022-08-11T09:28:30;26.00;70.00
6462;DHT22;3264;42.862;25.098;2022-08-11T09:34:22;26.30;69.20
6462;DHT22;3264;42.862;25.098;2022-08-11T09:39:39;25.50;70.80
6462;DHT22;3264;42.862;25.098;2022-08-11T09:42:27;25.50;70.60
6462;DHT22;3264;42.862;25.098;2022-08-11T09:45:10;26.30;71.50
6462;DHT22;3264;42.862;25.098;2022-08-11T09:47:44;26.60;69.60
6462;DHT22;3264;42.862;25.098;2022-08-11T09:50:18;26.90;68.50
6462;DHT22;3264;42.862;25.098;2022-08-11T09:52:49;26.60;69.00
6462;DHT22;3264;42.862;25.098;2022-08-11T09:55:19;26.60;69.90
6462;DHT22;3264;42.862;25.098;2022-08-11T09:57:47;27.40;70.00
6462;DHT22;3264;42.862;25.098;2022-08-11T10:00:34;26.50;67.70
6462;DHT22;3264;42.862;25.098;2022-08-11T10:03:29;26.40;72.40
6462;DHT22;3264;42.862;25.098;2022-08-11T10:06:02;26.10;72.80
6462;DHT22;3264;42.862;25.098;2022-08-11T10:09:07;25.60;71.30
6462;DHT22;3264;42.862;25.098;2022-08-11T10:11:36;25.70;72.80
6462;DHT22;3264;42.862;25.098;2022-08-11T10:14:07;26.00;72.70
6462;DHT22;3264;42.862;25.098;2022-08-11T10:16:53;25.90;70.80
6462;DHT22;3264;42.862;25.098;2022-08-11T10:19:22;25.70;72.50
6462;DHT22;3264;42.862;25.098;2022-08-11T10:21:54;26.10;72.50
6462;DHT22;3264;42.862;25.098;2022-08-11T10:24:41;26.00;73.40
6462;DHT22;3264;42.862;25.098;2022-08-11T10:27:44;26.10;72.00
6462;DHT22;3264;42.862;25.098;2022-08-11T10:30:14;26.50;73.20
6462;DHT22;3264;42.862;25.098;2022-08-11T10:32:59;26.60;71.40
6462;DHT22;3264;42.862;25.098;2022-08-11T10:35:46;26.50;70.60
6462;DHT22;3264;42.862;25.098;2022-08-11T10:38:17;26.60;69.20
6462;DHT22;3264;42.862;25.098;2022-08-11T10:40:46;27.40;68.00
6462;DHT22;3264;42.862;25.098;2022-08-11T10:43:38;28.20;67.10
6462;DHT22;3264;42.862;25.098;2022-08-11T10:46:09;28.90;67.00
6462;DHT22;3264;42.862;25.098;2022-08-11T10:48:55;28.90;64.50
6462;DHT22;3264;42.862;25.098;2022-08-11T10:51:26;28.30;63.30
6462;DHT22;3264;42.862;25.098;2022-08-11T10:54:14;28.60;66.40
6462;DHT22;3264;42.862;25.098;2022-08-11T10:57:00;28.00;63.50
6462;DHT22;3264;42.862;25.098;2022-08-11T10:59:46;27.70;63.50
6462;DHT22;3264;42.862;25.098;2022-08-11T11:02:17;27.80;63.40
6462;DHT22;3264;42.862;25.098;2022-08-11T11:04:59;28.20;65.30
6462;DHT22;3264;42.862;25.098;2022-08-11T11:07:51;28.40;62.10
6462;DHT22;3264;42.862;25.098;2022-08-11T11:10:25;29.00;64.20
6462;DHT22;3264;42.862;25.098;2022-08-11T11:12:57;28.30;60.90
6462;DHT22;3264;42.862;25.098;2022-08-11T11:19:08;29.00;59.40
6462;DHT22;3264;42.862;25.098;2022-08-11T11:21:46;28.70;59.10
6462;DHT22;3264;42.862;25.098;2022-08-11T11:24:50;28.40;62.80
6462;DHT22;3264;42.862;25.098;2022-08-11T11:27:33;27.40;61.40
6462;DHT22;3264;42.862;25.098;2022-08-11T11:30:19;27.10;64.40
6462;DHT22;3264;42.862;25.098;2022-08-11T11:32:57;27.80;66.80
6462;DHT22;3264;42.862;25.098;2022-08-11T11:35:40;28.30;62.50
6462;DHT22;3264;42.862;25.098;2022-08-11T11:38:16;29.20;61.70
6462;DHT22;3264;42.862;25.098;2022-08-11T11:40:47;29.90;58.80
6462;DHT22;3264;42.862;25.098;2022-08-11T11:43:38;29.50;59.80
6462;DHT22;3264;42.862;25.098;2022-08-11T11:52:52;27.80;62.70
6462;DHT22;3264;42.862;25.098;2022-08-11T11:55:22;28.40;60.50
6462;DHT22;3264;42.862;25.098;2022-08-11T11:57:52;27.90;59.00
6462;DHT22;3264;42.862;25.098;2022-08-11T12:01:02;28.50;60.90
6462;DHT22;3264;42.862;25.098;2022-08-11T12:04:14;28.90;59.60
6462;DHT22;3264;42.862;25.098;2022-08-11T12:06:44;29.30;60.40
6462;DHT22;3264;42.862;25.098;2022-08-11T12:09:53;29.10;57.30
6462;DHT22;3264;42.862;25.098;2022-08-11T12:12:42;29.70;58.60
6462;DHT22;3264;42.862;25.098;2022-08-11T12:15:52;29.60;57.30
6462;DHT22;3264;42.862;25.098;2022-08-11T12:18:35;29.50;57.80
6462;DHT22;3264;42.862;25.098;2022-08-11T12:21:06;28.60;58.10
6462;DHT22;3264;42.862;25.098;2022-08-11T12:23:36;29.00;59.90
6462;DHT22;3264;42.862;25.098;2022-08-11T12:26:23;28.80;59.00
6462;DHT22;3264;42.862;25.098;2022-08-11T12:29:10;29.00;59.00
6462;DHT22;3264;42.862;25.098;2022-08-11T12:31:40;29.50;59.20
6462;DHT22;3264;42.862;25.098;2022-08-11T12:34:13;29.40;59.60
6462;DHT22;3264;42.862;25.098;2022-08-11T12:36:45;28.60;56.10
6462;DHT22;3264;42.862;25.098;2022-08-11T12:39:19;29.30;57.50
6462;DHT22;3264;42.862;25.098;2022-08-11T12:42:44;29.80;57.60
6462;DHT22;3264;42.862;25.098;2022-08-11T12:45:31;29.10;57.20
6462;DHT22;3264;42.862;25.098;2022-08-11T12:48:05;28.70;58.00
6462;DHT22;3264;42.862;25.098;2022-08-11T12:50:56;28.60;57.40
6462;DHT22;3264;42.862;25.098;2022-08-11T12:53:53;28.90;59.40
6462;DHT22;3264;42.862;25.098;2022-08-11T12:56:23;28.40;56.60
6462;DHT22;3264;42.862;25.098;2022-08-11T12:59:20;28.90;57.60
6462;DHT22;3264;42.862;25.098;2022-08-11T13:02:07;28.90;57.30
6462;DHT22;3264;42.862;25.098;2022-08-11T13:04:55;29.00;57.70
6462;DHT22;3264;42.862;25.098;2022-08-11T13:07:29;28.40;58.70
6462;DHT22;3264;42.862;25.098;2022-08-11T13:13:26;28.40;59.50
6462;DHT22;3264;42.862;25.098;2022-08-11T13:15:55;29.20;57.70
6462;DHT22;3264;42.862;25.098;2022-08-11T13:18:48;29.40;57.40
6462;DHT22;3264;42.862;25.098;2022-08-11T13:21:36;29.30;56.70
6462;DHT22;3264;42.862;25.098;2022-08-11T13:24:06;29.40;57.90
6462;DHT22;3264;42.862;25.098;2022-08-11T13:33:17;29.60;58.10
6462;DHT22;3264;42.862;25.098;2022-08-11T13:36:01;30.10;56.40
6462;DHT22;3264;42.862;25.098;2022-08-11T13:38:31;29.30;56.30
6462;DHT22;3264;42.862;25.098;2022-08-11T13:41:01;29.50;56.20
6462;DHT22;3264;42.862;25.098;2022-08-11T13:44:26;29.10;56.50
6462;DHT22;3264;42.862;25.098;2022-08-11T13:46:57;29.20;58.10
6462;DHT22;3264;42.862;25.098;2022-08-11T13:49:48;28.50;56.10
6462;DHT22;3264;42.862;25.098;2022-08-11T13:52:22;28.00;58.10
6462;DHT22;3264;42.862;25.098;2022-08-11T13:54:52;27.80;60.10
6462;DHT22;3264;42.862;25.098;2022-08-11T13:57:30;28.20;59.50
6462;DHT22;3264;42.862;25.098;2022-08-11T14:00:03;28.40;58.30
6462;DHT22;3264;42.862;25.098;2022-08-11T14:16:49;28.70;56.30
6462;DHT22;3264;42.862;25.098;2022-08-11T14:42:48;28.40;57.80
6462;DHT22;3264;42.862;25.098;2022-08-11T14:45:34;28.50;58.40
6462;DHT22;3264;42.862;25.098;2022-08-11T14:48:19;28.20;58.00
6462;DHT22;3264;42.862;25.098;2022-08-11T14:51:05;28.10;57.40
6462;DHT22;3264;42.862;25.098;2022-08-11T14:54:08;28.30;58.50
6462;DHT22;3264;42.862;25.098;2022-08-11T14:56:53;28.20;57.30
6462;DHT22;3264;42.862;25.098;2022-08-11T14:59:24;28.10;56.60
6462;DHT22;3264;42.862;25.098;2022-08-11T15:01:52;28.00;56.90
6462;DHT22;3264;42.862;25.098;2022-08-11T15:04:38;27.80;57.00
6462;DHT22;3264;42.862;25.098;2022-08-11T15:07:07;27.90;57.40
6462;DHT22;3264;42.862;25.098;2022-08-11T15:09:44;27.70;57.10
6462;DHT22;3264;42.862;25.098;2022-08-11T15:12:14;27.80;58.40
6462;DHT22;3264;42.862;25.098;2022-08-11T15:14:46;27.70;57.70
6462;DHT22;3264;42.862;25.098;2022-08-11T15:17:32;27.40;58.40
6462;DHT22;3264;42.862;25.098;2022-08-11T15:20:03;27.40;58.70
6462;DHT22;3264;42.862;25.098;2022-08-11T15:26:14;27.40;59.00
6462;DHT22;3264;42.862;25.098;2022-08-11T15:28:47;27.20;60.20
6462;DHT22;3264;42.862;25.098;2022-08-11T15:31:38;27.10;59.50
6462;DHT22;3264;42.862;25.098;2022-08-11T15:34:27;26.70;60.10
6462;DHT22;3264;42.862;25.098;2022-08-11T15:37:43;26.60;60.70
6462;DHT22;3264;42.862;25.098;2022-08-11T15:43:38;26.30;62.10
6462;DHT22;3264;42.862;25.098;2022-08-11T15:46:29;26.60;60.90
6462;DHT22;3264;42.862;25.098;2022-08-11T15:49:02;26.20;63.80
6462;DHT22;3264;42.862;25.098;2022-08-11T16:02:56;25.80;62.80
6462;DHT22;3264;42.862;25.098;2022-08-11T16:05:43;25.80;64.80
6462;DHT22;3264;42.862;25.098;2022-08-11T16:08:14;25.70;63.70
6462;DHT22;3264;42.862;25.098;2022-08-11T16:10:45;25.60;63.70
6462;DHT22;3264;42.862;25.098;2022-08-11T16:13:17;25.50;64.30
6462;DHT22;3264;42.862;25.098;2022-08-11T16:16:17;25.60;66.00
6462;DHT22;3264;42.862;25.098;2022-08-11T16:18:52;25.50;65.30
6462;DHT22;3264;42.862;25.098;2022-08-11T16:21:25;25.40;66.10
6462;DHT22;3264;42.862;25.098;2022-08-11T16:23:59;25.40;67.90
6462;DHT22;3264;42.862;25.098;2022-08-11T16:27:49;25.40;68.90
6462;DHT22;3264;42.862;25.098;2022-08-11T16:30:44;25.10;66.40
6462;DHT22;3264;42.862;25.098;2022-08-11T16:33:13;24.90;68.40
6462;DHT22;3264;42.862;25.098;2022-08-11T16:35:49;24.90;67.80
6462;DHT22;3264;42.862;25.098;2022-08-11T16:42:00;24.80;67.70
6462;DHT22;3264;42.862;25.098;2022-08-11T16:44:46;24.70;67.70
6462;DHT22;3264;42.862;25.098;2022-08-11T16:47:32;24.60;68.10
6462;DHT22;3264;42.862;25.098;2022-08-11T16:50:02;24.60;68.50
6462;DHT22;3264;42.862;25.098;2022-08-11T16:52:58;24.50;68.40
6462;DHT22;3264;42.862;25.098;2022-08-11T16:55:28;24.30;69.50
6462;DHT22;3264;42.862;25.098;2022-08-11T16:58:00;24.20;70.90
6462;DHT22;3264;42.862;25.098;2022-08-11T17:00:48;24.00;72.20
6462;DHT22;3264;42.862;25.098;2022-08-11T17:03:19;23.80;72.60
6462;DHT22;3264;42.862;25.098;2022-08-11T17:06:07;23.60;73.00
6462;DHT22;3264;42.862;25.098;2022-08-11T17:08:55;23.50;73.10
6462;DHT22;3264;42.862;25.098;2022-08-11T17:11:44;23.40;73.90
6462;DHT22;3264;42.862;25.098;2022-08-11T17:14:35;23.10;75.50
6462;DHT22;3264;42.862;25.098;2022-08-11T17:17:09;22.90;76.60
6462;DHT22;3264;42.862;25.098;2022-08-11T17:19:51;22.70;78.00
6462;DHT22;3264;42.862;25.098;2022-08-11T17:22:22;22.60;78.50
6462;DHT22;3264;42.862;25.098;2022-08-11T17:25:10;22.50;79.40
6462;DHT22;3264;42.862;25.098;2022-08-11T17:27:40;22.40;80.20
6462;DHT22;3264;42.862;25.098;2022-08-11T17:30:13;22.40;80.10
6462;DHT22;3264;42.862;25.098;2022-08-11T17:32:46;22.30;80.00
6462;DHT22;3264;42.862;25.098;2022-08-11T17:35:35;22.40;80.20
6462;DHT22;3264;42.862;25.098;2022-08-11T17:38:06;22.20;80.10
6462;DHT22;3264;42.862;25.098;2022-08-11T17:40:38;22.10;80.90
6462;DHT22;3264;42.862;25.098;2022-08-11T17:43:29;22.00;81.60
6462;DHT22;3264;42.862;25.098;2022-08-11T17:46:17;21.90;81.10
6462;DHT22;3264;42.862;25.098;2022-08-11T17:49:31;21.90;81.70
6462;DHT22;3264;42.862;25.098;2022-08-11T17:52:06;21.80;82.20
6462;DHT22;3264;42.862;25.098;2022-08-11T17:54:54;21.70;83.10
6462;DHT22;3264;42.862;25.098;2022-08-11T18:01:17;21.40;84.20
6462;DHT22;3264;42.862;25.098;2022-08-11T18:03:49;21.30;84.30
6462;DHT22;3264;42.862;25.098;2022-08-11T18:06:20;21.20;85.30
6462;DHT22;3264;42.862;25.098;2022-08-11T18:19:22;21.00;87.10
6462;DHT22;3264;42.862;25.098;2022-08-11T18:22:26;20.90;88.20
6462;DHT22;3264;42.862;25.098;2022-08-11T18:25:38;20.70;89.20
6462;DHT22;3264;42.862;25.098;2022-08-11T18:28:31;20.60;89.90
6462;DHT22;3264;42.862;25.098;2022-08-11T18:31:33;20.40;90.40
6462;DHT22;3264;42.862;25.098;2022-08-11T18:34:43;20.40;90.50
6462;DHT22;3264;42.862;25.098;2022-08-11T18:37:48;20.20;91.00
6462;DHT22;3264;42.862;25.098;2022-08-11T18:40:36;20.20;91.20
6462;DHT22;3264;42.862;25.098;2022-08-11T18:43:36;20.00;91.50
6462;DHT22;3264;42.862;25.098;2022-08-11T18:46:44;20.00;91.90
6462;DHT22;3264;42.862;25.098;2022-08-11T18:49:34;19.70;92.40
6462;DHT22;3264;42.862;25.098;2022-08-11T19:19:20;19.20;94.30
6462;DHT22;3264;42.862;25.098;2022-08-11T19:22:19;19.20;94.60
6462;DHT22;3264;42.862;25.098;2022-08-11T19:25:13;19.00;94.90
6462;DHT22;3264;42.862;25.098;2022-08-11T19:28:01;18.80;95.40
6462;DHT22;3264;42.862;25.098;2022-08-11T19:34:46;18.60;96.30
6462;DHT22;3264;42.862;25.098;2022-08-11T19:37:33;18.40;97.00
6462;DHT22;3264;42.862;25.098;2022-08-11T19:40:20;18.30;97.60
6462;DHT22;3264;42.862;25.098;2022-08-11T19:43:08;18.20;97.80
6462;DHT22;3264;42.862;25.098;2022-08-11T19:45:56;18.10;98.20
6462;DHT22;3264;42.862;25.098;2022-08-11T19:48:57;18.10;98.20
6462;DHT22;3264;42.862;25.098;2022-08-11T19:51:53;18.00;98.40
6462;DHT22;3264;42.862;25.098;2022-08-11T19:54:41;18.10;98.50
6462;DHT22;3264;42.862;25.098;2022-08-11T19:57:29;18.10;98.20
6462;DHT22;3264;42.862;25.098;2022-08-11T20:00:21;18.00;98.50
6462;DHT22;3264;42.862;25.098;2022-08-11T20:03:09;18.10;98.70
6462;DHT22;3264;42.862;25.098;2022-08-11T20:05:58;18.00;99.00
6462;DHT22;3264;42.862;25.098;2022-08-11T20:08:48;18.00;99.20
6462;DHT22;3264;42.862;25.098;2022-08-11T20:11:37;17.90;99.60
6462;DHT22;3264;42.862;25.098;2022-08-11T20:14:26;17.90;99.40
6462;DHT22;3264;42.862;25.098;2022-08-11T20:17:15;17.80;99.60
6462;DHT22;3264;42.862;25.098;2022-08-11T20:20:04;17.90;99.20
6462;DHT22;3264;42.862;25.098;2022-08-11T20:22:53;18.00;99.20
6462;DHT22;3264;42.862;25.098;2022-08-11T20:25:41;17.90;99.30
6462;DHT22;3264;42.862;25.098;2022-08-11T20:28:28;18.00;99.40
6462;DHT22;3264;42.862;25.098;2022-08-11T20:31:14;17.90;99.50
6462;DHT22;3264;42.862;25.098;2022-08-11T20:34:02;17.90;99.80
6462;DHT22;3264;42.862;25.098;2022-08-11T20:36:50;17.70;99.90
6462;DHT22;3264;42.862;25.098;2022-08-11T20:43:01;17.50;99.90
6462;DHT22;3264;42.862;25.098;2022-08-11T20:45:48;17.30;99.90
6462;DHT22;3264;42.862;25.098;2022-08-11T20:48:35;17.30;99.90
6462;DHT22;3264;42.862;25.098;2022-08-11T20:51:21;17.10;99.90
6462;DHT22;3264;42.862;25.098;2022-08-11T20:54:07;17.10;99.90
6462;DHT22;3264;42.862;25.098;2022-08-11T20:56:55;17.10;99.90
6462;DHT22;3264;42.862;25.098;2022-08-11T20:59:43;16.90;99.90
6462;DHT22;3264;42.862;25.098;2022-08-11T21:06:12;16.70;99.90
6462;DHT22;3264;42.862;25.098;2022-08-11T21:09:01;16.90;99.90
6462;DHT22;3264;42.862;25.098;2022-08-11T21:11:52;16.70;99.90
6462;DHT22;3264;42.862;25.098;2022-08-11T21:14:39;16.70;99.90
6462;DHT22;3264;42.862;25.098;2022-08-11T21:17:31;16.70;99.90
6462;DHT22;3264;42.862;25.098;2022-08-11T21:20:17;16.70;99.90
6462;DHT22;3264;42.862;25.098;2022-08-11T21:23:04;16.60;99.90
6462;DHT22;3264;42.862;25.098;2022-08-11T21:25:54;16.60;99.90
6462;DHT22;3264;42.862;25.098;2022-08-11T21:28:40;16.60;99.90
6462;DHT22;3264;42.862;25.098;2022-08-11T21:31:28;16.60;99.90
6462;DHT22;3264;42.862;25.098;2022-08-11T21:37:39;16.50;99.90
6462;DHT22;3264;42.862;25.098;2022-08-11T21:40:45;16.50;99.90
6462;DHT22;3264;42.862;25.098;2022-08-11T21:43:33;16.30;99.90
6462;DHT22;3264;42.862;25.098;2022-08-11T21:46:20;16.30;99.90
6462;DHT22;3264;42.862;25.098;2022-08-11T21:49:07;16.30;99.90
6462;DHT22;3264;42.862;25.098;2022-08-11T21:51:54;16.30;99.90
6462;DHT22;3264;42.862;25.098;2022-08-11T21:54:42;16.30;99.90
6462;DHT22;3264;42.862;25.098;2022-08-11T21:57:28;16.20;99.90
6462;DHT22;3264;42.862;25.098;2022-08-11T22:00:15;16.20;99.90
6462;DHT22;3264;42.862;25.098;2022-08-11T22:03:00;16.20;99.90
6462;DHT22;3264;42.862;25.098;2022-08-11T22:05:47;16.10;99.90
6462;DHT22;3264;42.862;25.098;2022-08-11T22:09:10;16.10;99.90
6462;DHT22;3264;42.862;25.098;2022-08-11T22:11:58;16.00;99.90
6462;DHT22;3264;42.862;25.098;2022-08-11T22:14:47;15.90;99.90
6462;DHT22;3264;42.862;25.098;2022-08-11T22:17:33;15.90;99.90
6462;DHT22;3264;42.862;25.098;2022-08-11T22:20:19;15.80;99.90
6462;DHT22;3264;42.862;25.098;2022-08-11T22:23:05;15.90;99.90
6462;DHT22;3264;42.862;25.098;2022-08-11T22:25:51;15.80;99.90
6462;DHT22;3264;42.862;25.098;2022-08-11T22:28:41;15.70;99.90
6462;DHT22;3264;42.862;25.098;2022-08-11T22:31:45;15.70;99.90
6462;DHT22;3264;42.862;25.098;2022-08-11T22:34:31;15.70;99.90
6462;DHT22;3264;42.862;25.098;2022-08-11T22:37:17;15.60;99.90
6462;DHT22;3264;42.862;25.098;2022-08-11T22:40:06;15.60;99.90
6462;DHT22;3264;42.862;25.098;2022-08-11T22:42:52;15.50;99.90
6462;DHT22;3264;42.862;25.098;2022-08-11T22:45:40;15.40;99.90